createdAt,value
2019-03-08T00:04:58.843Z,19.90
2019-03-08T00:10:58.903Z,17.60
2019-03-08T00:16:58.865Z,16.90
2019-03-08T00:22:59.941Z,15.10
2019-03-08T00:28:58.887Z,14.50
2019-03-08T00:34:58.845Z,13.80
2019-03-08T00:40:58.874Z,12.80
2019-03-08T00:46:58.879Z,12.50
2019-03-08T00:52:58.882Z,22.70
2019-03-08T00:58:58.891Z,132.20
2019-03-08T01:04:58.908Z,120.50
2019-03-08T01:11:01.971Z,95.90
2019-03-08T01:16:58.880Z,77.50
2019-03-08T01:22:59.002Z,75.20
2019-03-08T01:28:58.951Z,68.90
2019-03-08T01:34:58.924Z,68.00
2019-03-08T01:40:58.915Z,62.00
2019-03-08T01:46:58.931Z,61.00
2019-03-08T01:52:58.916Z,121.80
2019-03-08T01:58:58.950Z,185.10
2019-03-08T02:04:58.990Z,130.90
2019-03-08T02:10:58.907Z,119.20
2019-03-08T02:16:58.942Z,113.10
2019-03-08T02:22:58.971Z,108.20
2019-03-08T02:28:58.965Z,102.40
2019-03-08T02:34:58.939Z,94.30
2019-03-08T02:40:58.964Z,89.70
2019-03-08T02:46:58.961Z,83.90
2019-03-08T02:52:58.968Z,78.90
2019-03-08T02:58:58.970Z,76.60
2019-03-08T03:04:58.985Z,71.20
2019-03-08T03:10:58.943Z,66.60
2019-03-08T03:16:58.999Z,62.50
2019-03-08T03:22:58.995Z,60.80
2019-03-08T03:28:59.031Z,57.30
2019-03-08T03:34:59.019Z,55.70
2019-03-08T03:41:00.029Z,53.10
2019-03-08T03:46:59.003Z,49.90
2019-03-08T03:52:59.032Z,49.20
2019-03-08T03:58:59.027Z,44.30
2019-03-08T04:04:58.996Z,43.30
2019-03-08T04:10:59.009Z,41.40
2019-03-08T04:16:58.993Z,38.90
2019-03-08T04:22:59.026Z,37.70
2019-03-08T04:28:59.039Z,34.80
2019-03-08T04:34:59.043Z,34.70
2019-03-08T04:40:59.042Z,33.00
2019-03-08T04:46:59.073Z,31.60
2019-03-08T04:52:59.051Z,28.90
2019-03-08T04:58:59.070Z,28.70
2019-03-08T05:04:59.069Z,27.30
2019-03-08T05:10:59.180Z,26.50
2019-03-08T05:16:59.038Z,24.90
2019-03-08T05:22:59.056Z,23.70
2019-03-08T05:28:59.094Z,22.60
2019-03-08T05:34:59.062Z,21.00
2019-03-08T05:40:59.074Z,20.10
2019-03-08T05:46:59.098Z,19.90
2019-03-08T05:52:59.099Z,18.50
2019-03-08T05:58:59.311Z,18.10
2019-03-08T06:04:59.082Z,17.70
2019-03-08T06:10:59.077Z,16.20
2019-03-08T06:16:59.123Z,15.70
2019-03-08T06:22:59.128Z,15.00
2019-03-08T06:28:59.163Z,14.10
2019-03-08T06:34:59.103Z,13.40
2019-03-08T06:40:59.146Z,12.60
2019-03-08T06:46:59.176Z,11.90
2019-03-08T06:52:59.148Z,11.10
2019-03-08T06:58:59.476Z,11.40
2019-03-08T07:04:59.117Z,10.30
2019-03-08T07:10:59.134Z,10.00
2019-03-08T07:16:59.158Z,9.50
2019-03-08T07:22:59.143Z,9.90
2019-03-08T07:28:59.195Z,10.50
2019-03-08T07:34:59.156Z,11.60
2019-03-08T07:40:59.174Z,10.90
2019-03-08T07:46:59.178Z,10.80
2019-03-08T07:52:59.186Z,10.90
2019-03-08T07:58:59.185Z,10.20
2019-03-08T08:04:59.196Z,9.80
2019-03-08T08:10:59.200Z,8.80
2019-03-08T08:16:59.172Z,9.30
2019-03-08T08:22:59.194Z,7.60
2019-03-08T08:28:59.212Z,7.90
2019-03-08T08:34:59.226Z,7.30
2019-03-08T08:40:59.195Z,6.70
2019-03-08T08:46:59.213Z,59.90
2019-03-08T08:52:59.308Z,136.30
2019-03-08T08:58:59.235Z,214.50
2019-03-08T09:05:01.147Z,228.50
2019-03-08T09:10:59.218Z,274.20
2019-03-08T09:16:59.229Z,278.70
2019-03-08T09:22:59.232Z,270.90
2019-03-08T09:28:59.266Z,406.10
2019-03-08T09:34:59.279Z,315.80
2019-03-08T09:40:59.236Z,302.20
2019-03-08T09:46:59.283Z,290.20
2019-03-08T09:52:59.302Z,267.50
2019-03-08T09:58:59.251Z,248.20
2019-03-08T10:04:59.248Z,236.80
2019-03-08T10:10:59.274Z,240.10
2019-03-08T10:16:59.249Z,241.80
2019-03-08T10:22:59.231Z,227.10
2019-03-08T10:28:59.300Z,213.10
2019-03-08T10:34:59.321Z,193.80
2019-03-08T10:40:59.322Z,177.00
2019-03-08T10:46:59.309Z,168.70
2019-03-08T10:52:59.309Z,150.40
2019-03-08T10:58:59.336Z,143.90
2019-03-08T11:04:59.328Z,128.90
2019-03-08T11:11:06.113Z,119.60
2019-03-08T11:16:59.303Z,109.70
2019-03-08T11:22:59.311Z,100.90
2019-03-08T11:28:59.342Z,94.20
2019-03-08T11:34:59.354Z,86.20
2019-03-08T11:40:59.351Z,83.70
2019-03-08T11:46:59.405Z,75.80
2019-03-08T11:52:59.392Z,71.30
2019-03-08T11:58:59.318Z,68.70
2019-03-08T12:04:59.325Z,60.00
2019-03-08T12:10:59.380Z,56.50
2019-03-08T12:16:59.384Z,54.20
2019-03-08T12:22:59.331Z,51.80
2019-03-08T12:28:59.377Z,49.30
2019-03-08T12:34:59.402Z,45.30
2019-03-08T12:40:59.378Z,43.30
2019-03-08T12:46:59.421Z,40.20
2019-03-08T12:52:59.411Z,38.40
2019-03-08T12:59:00.619Z,36.10
2019-03-08T13:04:59.388Z,33.20
2019-03-08T13:10:59.409Z,32.60
2019-03-08T13:16:59.388Z,31.70
2019-03-08T13:22:59.421Z,28.80
2019-03-08T13:28:59.388Z,28.00
2019-03-08T13:34:59.391Z,27.70
2019-03-08T13:40:59.429Z,27.20
2019-03-08T13:46:59.423Z,25.60
2019-03-08T13:52:59.419Z,24.30
2019-03-08T13:59:00.278Z,23.70
2019-03-08T14:04:59.447Z,23.10
2019-03-08T14:10:59.398Z,21.70
2019-03-08T14:16:59.462Z,20.70
2019-03-08T14:22:59.438Z,20.60
2019-03-08T14:28:59.489Z,19.80
2019-03-08T14:34:59.443Z,18.60
2019-03-08T14:40:59.511Z,35.90
2019-03-08T14:46:59.536Z,61.10
2019-03-08T14:52:59.491Z,91.50
2019-03-08T14:58:59.634Z,113.40
2019-03-08T15:04:59.493Z,111.70
2019-03-08T15:10:59.459Z,106.70
2019-03-08T15:17:08.694Z,93.50
2019-03-08T15:22:59.513Z,85.90
2019-03-08T15:28:59.500Z,90.90
2019-03-08T15:34:59.486Z,84.50
2019-03-08T15:40:59.521Z,85.50
2019-03-08T15:47:00.473Z,79.90
2019-03-08T15:52:59.497Z,75.20
2019-03-08T15:58:59.658Z,167.60
2019-03-08T16:04:59.624Z,441.50
2019-03-08T16:11:00.573Z,251.60
2019-03-08T16:16:59.534Z,204.00
2019-03-08T16:23:02.592Z,160.00
2019-03-08T16:28:59.550Z,529.80
2019-03-08T16:34:59.594Z,297.20
2019-03-08T16:40:59.511Z,253.40
2019-03-08T16:46:59.538Z,232.80
2019-03-08T16:52:59.563Z,453.10
2019-03-08T16:58:59.548Z,307.40
2019-03-08T17:04:59.574Z,253.60
2019-03-08T17:10:59.536Z,231.00
2019-03-08T17:16:59.567Z,316.40
2019-03-08T17:22:59.562Z,260.50
2019-03-08T17:28:59.559Z,213.80
2019-03-08T17:34:59.570Z,209.00
2019-03-08T17:40:59.550Z,187.60
2019-03-08T17:46:59.596Z,165.10
2019-03-08T17:52:59.579Z,151.80
2019-03-08T17:58:59.601Z,140.50
2019-03-08T18:04:59.630Z,129.10
2019-03-08T18:10:59.581Z,115.70
2019-03-08T18:16:59.574Z,105.80
2019-03-08T18:23:00.627Z,93.30
2019-03-08T18:28:59.594Z,85.60
2019-03-08T18:34:59.659Z,82.10
2019-03-08T18:40:59.604Z,72.80
2019-03-08T18:46:59.668Z,66.70
2019-03-08T18:52:59.644Z,63.00
2019-03-08T18:58:59.690Z,58.60
2019-03-08T19:04:59.669Z,54.50
2019-03-08T19:10:59.634Z,50.50
2019-03-08T19:16:59.639Z,47.60
2019-03-08T19:22:59.650Z,45.10
2019-03-08T19:28:59.670Z,42.60
2019-03-08T19:34:59.641Z,39.60
2019-03-08T19:40:59.647Z,37.50
2019-03-08T19:46:59.700Z,35.70
2019-03-08T19:52:59.686Z,34.40
2019-03-08T19:58:59.723Z,31.50
2019-03-08T20:04:59.709Z,30.60
2019-03-08T20:10:59.716Z,29.30
2019-03-08T20:16:59.740Z,27.70
2019-03-08T20:22:59.692Z,26.70
2019-03-08T20:28:59.688Z,23.80
2019-03-08T20:34:59.733Z,21.80
2019-03-08T20:40:59.688Z,21.80
2019-03-08T20:46:59.733Z,56.50
2019-03-08T20:52:59.777Z,75.40
2019-03-08T20:58:59.762Z,75.70
2019-03-08T21:04:59.737Z,67.50
2019-03-08T21:10:59.772Z,62.20
2019-03-08T21:17:00.016Z,57.60
2019-03-08T21:22:59.729Z,54.00
2019-03-08T21:28:59.752Z,51.50
2019-03-08T21:34:59.810Z,48.70
2019-03-08T21:40:59.750Z,45.70
2019-03-08T21:46:59.780Z,43.60
2019-03-08T21:52:59.798Z,42.50
2019-03-08T21:58:59.787Z,39.80
2019-03-08T22:04:59.800Z,82.60
2019-03-08T22:10:59.772Z,142.50
2019-03-08T22:16:59.807Z,139.20
2019-03-08T22:22:59.879Z,132.40
2019-03-08T22:28:59.786Z,125.20
2019-03-08T22:34:59.814Z,115.40
2019-03-08T22:40:59.801Z,107.00
2019-03-08T22:46:59.781Z,100.70
2019-03-08T22:52:59.805Z,98.10
2019-03-08T22:58:59.815Z,78.60
2019-03-08T23:04:59.813Z,76.60
2019-03-08T23:10:59.812Z,65.10
2019-03-08T23:16:59.850Z,564.70
2019-03-08T23:22:59.811Z,222.80
2019-03-08T23:28:59.885Z,183.60
2019-03-08T23:34:59.809Z,162.40
2019-03-08T23:40:59.950Z,155.20
2019-03-08T23:46:59.828Z,147.80
2019-03-08T23:52:59.928Z,139.00
2019-03-08T23:58:59.883Z,133.30
